CNX weather

Chiang Mai International Airport
Chiang Mai, Chiang Mai Province, Thailand

Public forecast

Using degrees Celsius for public forecast. Weather courtesy of forecast.io.

Current aviation weather report (METAR) for Chiang Mai International Airport

Retrieved 2020/04/02 22:00 UTC (1 minute ago):

VTCC 022200Z VRB02KT 5000 FU HZ NSC 23/11 Q1010 NOSIG

Aviation forecast (TAF) for Chiang Mai International Airport

Retrieved 2020/04/02 18:37 UTC (3 hours ago):

TAF VTCC 021700Z 0218/0324 19005KT 8000 NSC